Aérodrome :
LOGIN :

S'inscrire | Disclaimer

   EN    FR    IT 

 










Légende :    VFR   VFR Marginal   IFR   IFR Intensif   IFR Très Intensif
Visi : 
Plafond : 
>= 8 km
>= 3000ft
5 à 8 km
1000 à 3000 ft
1500m à 5 km
500 à 1000 ft
800 à 1500m
200 à 500 ft
< 800m
< 200 ft
Symboles :   Orages  Brouillard  Fortes neiges  Fortes précipitations  Vent > 20 kt
SIGMETs :   Divers  Orages  Givrage  Turbulence  Onde Orograph.  Cendres Volcan.






- Altitude de l'aérodrome : 404 ft
- Code IATA : WRO


EPWR - Wroclaw

DERNIER METAR :
  • 230230Z 28006KT 5000 BR FEW005 BKN030 01/01 Q1034

METARs EXPIRÉS :
  • 230200Z 30008KT 5000 BR SCT005 BKN030 01/01 Q1034
  • 230130Z 29008KT 6000 BKN005 02/01 Q1034
  • 230100Z 29009KT 6000 BKN005 02/02 Q1034
  • 230030Z 30010KT 6000 BKN005 02/02 Q1034
  • 230000Z 30011KT 6000 BKN004 BKN006 02/02 Q1034

TAF TAF EPWR
Valide du 23 à 03h jusqu'au 24 à 03h UTC


230230Z 2303/2403 30010KT 7000 BKN006
BECMG 2303/2304 3000 BR
TEMPO 2303/2307 1200 BR BKN002
PROB40
TEMPO 2303/2306 0400 FG
BECMG 2308/2310 7000 SCT020
BECMG 2313/2316 23005KT



MET'MAP, la Météo Aéronautique d'un coup d'oeil ! - Copyright ORBIFLY Décembre 2007 - Disclaimer

ORBIFLY MET'MAP TEAM :

Programmation & Développement : Alexandra Zaïnal
Sur une idée originale de : Baudouin d'Aumeries
Assistance à la programmation : Marc-Olivier Méhu
Soutien technique & logistique : Manuel Goepfert

Contact : metmap@orbifly.com




SOURCES & CREDITS :

   NOAA